Time,TemperatureF,DewpointF,PressureIn,WindDirection,WindDirectionDegrees,WindSpeedMPH,WindSpeedGustMPH,Humidity,HourlyPrecipIn,Conditions,Clouds,dailyrainin,SoftwareType,DateUTC
2013-03-31 00:00:00,31.9,23.9,21.60,ENE,68,0.0,0.0,72,0.00,,,0.00,WUHU216HW,2013-03-31 06:00:00,
2013-03-31 00:05:00,31.9,23.9,21.60,ENE,68,0.0,0.0,72,0.00,,,0.00,WUHU216HW,2013-03-31 06:05:00,
2013-03-31 00:10:00,31.9,23.9,21.60,ENE,68,0.0,0.0,72,0.00,,,0.00,WUHU216HW,2013-03-31 06:10:00,
2013-03-31 00:30:00,31.1,23.1,21.60,ENE,68,0.0,0.0,72,0.00,,,0.00,WUHU216HW,2013-03-31 06:30:00,
2013-03-31 00:35:00,31.1,23.1,21.60,ENE,68,0.0,0.0,72,0.00,,,0.00,WUHU216HW,2013-03-31 06:35:00,
2013-03-31 00:40:00,31.1,23.1,21.60,ENE,68,0.0,0.0,72,0.00,,,0.00,WUHU216HW,2013-03-31 06:40:00,
2013-03-31 01:00:00,30.2,22.0,21.60,NW,315,0.0,0.0,71,0.00,,,0.00,WUHU216HW,2013-03-31 07:00:00,
2013-03-31 01:05:00,30.2,22.0,21.60,NW,315,0.0,0.0,71,0.00,,,0.00,WUHU216HW,2013-03-31 07:05:00,
2013-03-31 01:10:00,30.2,22.0,21.60,NW,315,0.0,0.0,71,0.00,,,0.00,WUHU216HW,2013-03-31 07:10:00,
2013-03-31 01:30:00,29.5,21.6,21.60,NNW,338,0.0,0.0,72,0.00,,,0.00,WUHU216HW,2013-03-31 07:30:00,
2013-03-31 01:35:00,29.5,21.6,21.60,NNW,338,0.0,0.0,72,0.00,,,0.00,WUHU216HW,2013-03-31 07:35:00,
2013-03-31 01:40:00,29.5,21.6,21.60,NNW,338,0.0,0.0,72,0.00,,,0.00,WUHU216HW,2013-03-31 07:40:00,
2013-03-31 02:00:00,28.6,20.8,21.60,North,0,0.2,0.2,72,0.00,,,0.00,WUHU216HW,2013-03-31 08:00:00,
2013-03-31 02:05:00,28.6,20.8,21.60,North,0,0.0,0.2,72,0.00,,,0.00,WUHU216HW,2013-03-31 08:05:00,
2013-03-31 02:10:00,28.6,20.8,21.60,North,0,0.0,0.0,72,0.00,,,0.00,WUHU216HW,2013-03-31 08:10:00,
2013-03-31 02:30:00,27.2,19.4,21.59,WNW,293,0.4,0.4,72,0.00,,,0.00,WUHU216HW,2013-03-31 08:30:00,
2013-03-31 02:35:00,27.2,19.4,21.59,West,270,1.6,2.5,72,0.00,,,0.00,WUHU216HW,2013-03-31 08:35:00,
2013-03-31 02:40:00,27.2,19.4,21.59,West,270,1.6,2.5,72,0.00,,,0.00,WUHU216HW,2013-03-31 08:40:00,
2013-03-31 03:00:00,27.0,19.2,21.59,ENE,68,0.0,0.0,72,0.00,,,0.00,WUHU216HW,2013-03-31 09:00:00,
2013-03-31 03:05:00,27.0,19.2,21.59,ENE,68,0.0,0.0,72,0.00,,,0.00,WUHU216HW,2013-03-31 09:05:00,
2013-03-31 03:10:00,27.0,19.2,21.59,ENE,68,0.0,0.0,72,0.00,,,0.00,WUHU216HW,2013-03-31 09:10:00,
2013-03-31 03:30:00,26.5,18.6,21.58,East,90,0.0,0.0,72,0.00,,,0.00,WUHU216HW,2013-03-31 09:30:00,
2013-03-31 03:35:00,26.5,18.6,21.58,East,90,0.0,0.0,72,0.00,,,0.00,WUHU216HW,2013-03-31 09:35:00,
2013-03-31 03:40:00,26.5,18.6,21.58,East,90,0.0,0.0,72,0.00,,,0.00,WUHU216HW,2013-03-31 09:40:00,
2013-03-31 04:00:00,25.7,17.9,21.57,ENE,68,0.0,0.0,72,0.00,,,0.00,WUHU216HW,2013-03-31 10:00:00,
2013-03-31 04:05:00,25.7,17.9,21.57,ENE,68,0.0,0.0,72,0.00,,,0.00,WUHU216HW,2013-03-31 10:05:00,
2013-03-31 04:10:00,25.7,17.9,21.57,ENE,68,0.0,0.0,72,0.00,,,0.00,WUHU216HW,2013-03-31 10:10:00,
2013-03-31 04:30:00,25.2,17.7,21.57,NE,45,0.0,0.0,73,0.00,,,0.00,WUHU216HW,2013-03-31 10:30:00,
2013-03-31 04:35:00,25.2,17.7,21.57,NE,45,0.0,0.0,73,0.00,,,0.00,WUHU216HW,2013-03-31 10:35:00,
2013-03-31 04:40:00,25.2,17.7,21.57,NE,45,0.0,0.0,73,0.00,,,0.00,WUHU216HW,2013-03-31 10:40:00,
2013-03-31 05:00:00,24.8,17.6,21.57,WNW,293,0.0,0.0,74,0.00,,,0.00,WUHU216HW,2013-03-31 11:00:00,
2013-03-31 05:05:00,24.7,17.6,21.57,WNW,293,0.0,0.0,74,0.00,,,0.00,WUHU216HW,2013-03-31 11:05:00,
2013-03-31 05:10:00,24.7,17.6,21.57,WNW,293,0.0,0.0,74,0.00,,,0.00,WUHU216HW,2013-03-31 11:10:00,
2013-03-31 05:30:00,24.1,17.0,21.57,North,0,0.0,0.0,74,0.00,,,0.00,WUHU216HW,2013-03-31 11:30:00,
2013-03-31 05:35:00,24.1,17.0,21.57,North,0,0.0,0.0,74,0.00,,,0.00,WUHU216HW,2013-03-31 11:35:00,
2013-03-31 05:40:00,24.1,17.0,21.57,North,0,0.0,0.0,74,0.00,,,0.00,WUHU216HW,2013-03-31 11:40:00,
2013-03-31 06:00:00,23.9,16.8,21.58,East,90,0.0,0.0,74,0.00,,,0.00,WUHU216HW,2013-03-31 12:00:00,
2013-03-31 06:05:00,23.9,16.8,21.58,East,90,0.0,0.0,74,0.00,,,0.00,WUHU216HW,2013-03-31 12:05:00,
2013-03-31 06:10:00,23.9,16.8,21.58,East,90,0.0,0.0,74,0.00,,,0.00,WUHU216HW,2013-03-31 12:10:00,